Time,TemperatureF,DewpointF,PressureIn,WindDirection,WindDirectionDegrees,WindSpeedMPH,WindSpeedGustMPH,Humidity,HourlyPrecipIn,Conditions,Clouds,dailyrainin,SoftwareType,DateUTC
2013-04-10 00:03:00,64.0,57.0,30.16,East,82,4.0,7.0,77,-99.99,,,-99.99,,2013-04-10 04:03:00,
2013-04-10 00:13:00,63.0,57.0,30.16,East,86,3.0,5.0,78,-99.99,,,-99.99,,2013-04-10 04:13:00,
2013-04-10 00:23:00,63.0,57.0,30.16,ENE,69,3.0,5.0,80,-99.99,,,-99.99,,2013-04-10 04:23:00,
2013-04-10 00:33:00,63.0,57.0,30.16,ENE,69,3.0,5.0,80,-99.99,,,-99.99,,2013-04-10 04:33:00,
2013-04-10 00:43:00,62.0,57.0,30.15,ENE,66,3.0,4.0,80,-99.99,,,-99.99,,2013-04-10 04:43:00,
2013-04-10 00:53:00,62.0,57.0,30.15,ENE,61,3.0,6.0,82,-99.99,,,-99.99,,2013-04-10 04:53:00,
2013-04-10 01:03:00,62.0,57.0,30.15,ENE,61,3.0,6.0,82,-99.99,,,-99.99,,2013-04-10 05:03:00,
2013-04-10 01:13:00,62.0,56.0,30.15,ENE,66,2.0,3.0,82,-99.99,,,-99.99,,2013-04-10 05:13:00,
2013-04-10 01:23:00,61.0,56.0,30.15,ENE,61,3.0,4.0,85,-99.99,,,-99.99,,2013-04-10 05:23:00,
2013-04-10 01:33:00,61.0,56.0,30.15,ENE,61,3.0,4.0,85,-99.99,,,-99.99,,2013-04-10 05:33:00,
2013-04-10 01:42:00,60.0,56.0,30.14,NE,51,3.0,5.0,86,-99.99,,,-99.99,,2013-04-10 05:42:00,
2013-04-10 01:53:00,59.0,56.0,30.14,NE,56,4.0,5.0,88,-99.99,,,-99.99,,2013-04-10 05:53:00,
2013-04-10 02:03:00,59.0,56.0,30.14,NE,56,4.0,5.0,88,-99.99,,,-99.99,,2013-04-10 06:03:00,
2013-04-10 02:12:00,59.0,56.0,30.14,NE,41,3.0,5.0,88,-99.99,,,-99.99,,2013-04-10 06:12:00,
2013-04-10 02:22:00,58.0,55.0,30.13,NE,34,3.0,6.0,89,-99.99,,,-99.99,,2013-04-10 06:22:00,
2013-04-10 02:32:00,58.0,55.0,30.13,NE,34,3.0,6.0,89,-99.99,,,-99.99,,2013-04-10 06:32:00,
2013-04-10 02:42:00,59.0,56.0,30.12,NE,51,5.0,6.0,91,-99.99,,,-99.99,,2013-04-10 06:42:00,
2013-04-10 02:52:00,60.0,57.0,30.12,ENE,57,3.0,5.0,90,-99.99,,,-99.99,,2013-04-10 06:52:00,
2013-04-10 03:02:00,60.0,57.0,30.12,ENE,57,3.0,5.0,90,-99.99,,,-99.99,,2013-04-10 07:02:00,
2013-04-10 03:12:00,58.0,55.0,30.11,East,79,2.0,3.0,89,-99.99,,,-99.99,,2013-04-10 07:12:00,
2013-04-10 03:22:00,57.0,55.0,30.11,ENE,67,2.0,3.0,91,-99.99,,,-99.99,,2013-04-10 07:22:00,
2013-04-10 03:32:00,57.0,55.0,30.11,ENE,67,2.0,3.0,91,-99.99,,,-99.99,,2013-04-10 07:32:00,
2013-04-10 03:42:00,57.0,55.0,30.10,NE,38,3.0,3.0,91,-99.99,,,-99.99,,2013-04-10 07:42:00,
2013-04-10 03:52:00,57.0,54.0,30.10,NNE,31,2.0,3.0,91,-99.99,,,-99.99,,2013-04-10 07:52:00,
2013-04-10 04:02:00,57.0,54.0,30.10,NNE,31,2.0,3.0,91,-99.99,,,-99.99,,2013-04-10 08:02:00,
2013-04-10 04:12:00,58.0,56.0,30.10,NE,38,2.0,4.0,92,-99.99,,,-99.99,,2013-04-10 08:12:00,
2013-04-10 04:22:00,58.0,56.0,30.10,NE,38,2.0,4.0,92,-99.99,,,-99.99,,2013-04-10 08:22:00,
2013-04-10 04:32:00,56.0,54.0,30.10,NE,40,3.0,3.0,91,-99.99,,,-99.99,,2013-04-10 08:32:00,
2013-04-10 04:42:00,55.0,53.0,30.10,NE,40,2.0,3.0,92,-99.99,,,-99.99,,2013-04-10 08:42:00,
2013-04-10 04:52:00,55.0,53.0,30.10,NNE,32,2.0,2.0,92,-99.99,,,-99.99,,2013-04-10 08:52:00,
2013-04-10 05:02:00,55.0,53.0,30.10,NNE,32,2.0,2.0,92,-99.99,,,-99.99,,2013-04-10 09:02:00,
2013-04-10 05:12:00,56.0,54.0,30.10,NE,46,2.0,2.0,93,-99.99,,,-99.99,,2013-04-10 09:12:00,
2013-04-10 05:22:00,56.0,54.0,30.10,NE,46,2.0,2.0,93,-99.99,,,-99.99,,2013-04-10 09:22:00,
2013-04-10 05:32:00,55.0,53.0,30.10,ESE,103,1.0,3.0,93,-99.99,,,-99.99,,2013-04-10 09:32:00,
2013-04-10 05:43:00,54.0,52.0,30.10,NNW,332,3.0,4.0,93,-99.99,,,-99.99,,2013-04-10 09:43:00,
2013-04-10 05:53:00,54.0,52.0,30.10,WNW,288,1.0,2.0,93,-99.99,,,-99.99,,2013-04-10 09:53:00,
2013-04-10 06:03:00,54.0,52.0,30.10,WNW,288,1.0,2.0,93,-99.99,,,-99.99,,2013-04-10 10:03:00,
2013-04-10 06:13:00,54.0,53.0,30.10,SSW,206,1.0,2.0,93,-99.99,,,-99.99,,2013-04-10 10:13:00,
2013-04-10 06:23:00,54.0,53.0,30.09,SSE,147,2.0,2.0,93,-99.99,,,-99.99,,2013-04-10 10:23:00,
2013-04-10 06:33:00,54.0,53.0,30.09,SSE,147,2.0,2.0,93,-99.99,,,-99.99,,2013-04-10 10:33:00,
2013-04-10 06:43:00,54.0,52.0,30.09,NE,39,2.0,2.0,93,-99.99,,,-99.99,,2013-04-10 10:43:00,
2013-04-10 06:53:00,54.0,53.0,30.09,NE,40,2.0,3.0,93,-99.99,,,-99.99,,2013-04-10 10:53:00,
2013-04-10 07:02:00,54.0,53.0,30.09,NE,40,2.0,3.0,93,-99.99,,,-99.99,,2013-04-10 11:02:00,
2013-04-10 07:12:00,54.0,52.0,30.09,NNE,20,1.0,3.0,93,-99.99,,,-99.99,,2013-04-10 11:12:00,
2013-04-10 07:22:00,54.0,52.0,30.09,East,93,1.0,2.0,93,-99.99,,,-99.99,,2013-04-10 11:22:00,
2013-04-10 07:32:00,54.0,52.0,30.09,East,93,1.0,2.0,93,-99.99,,,-99.99,,2013-04-10 11:32:00,
2013-04-10 07:42:00,53.0,51.0,30.09,NE,47,2.0,3.0,93,-99.99,,,-99.99,,2013-04-10 11:42:00,
2013-04-10 07:53:00,53.0,51.0,30.10,ENE,59,4.0,5.0,93,-99.99,,,-99.99,,2013-04-10 11:53:00,
2013-04-10 08:03:00,53.0,51.0,30.10,ENE,59,4.0,5.0,93,-99.99,,,-99.99,,2013-04-10 12:03:00,
2013-04-10 08:12:00,55.0,53.0,30.09,NE,49,3.0,4.0,94,-99.99,,,-99.99,,2013-04-10 12:12:00,
2013-04-10 08:23:00,59.0,58.0,30.10,NE,48,3.0,4.0,94,-99.99,,,-99.99,,2013-04-10 12:23:00,
2013-04-10 08:33:00,59.0,58.0,30.10,NE,48,3.0,4.0,94,-99.99,,,-99.99,,2013-04-10 12:33:00,
2013-04-10 08:43:00,63.0,61.0,30.11,ENE,60,2.0,4.0,94,-99.99,,,-99.99,,2013-04-10 12:43:00,
2013-04-10 08:52:00,66.0,64.0,30.11,ENE,73,3.0,31.0,94,-99.99,,,-99.99,,2013-04-10 12:52:00,
2013-04-10 09:02:00,66.0,64.0,30.11,ENE,73,3.0,31.0,94,-99.99,,,-99.99,,2013-04-10 13:02:00,
2013-04-10 09:12:00,67.0,65.0,30.11,ENE,77,3.0,5.0,93,-99.99,,,-99.99,,2013-04-10 13:12:00,
2013-04-10 09:23:00,69.0,66.0,30.11,ENE,76,4.0,8.0,89,-99.99,,,-99.99,,2013-04-10 13:23:00,
2013-04-10 09:32:00,69.0,66.0,30.11,ENE,76,4.0,8.0,89,-99.99,,,-99.99,,2013-04-10 13:32:00,
2013-04-10 09:43:00,72.0,66.0,30.11,East,101,6.0,9.0,81,-99.99,,,-99.99,,2013-04-10 13:43:00,
2013-04-10 09:53:00,74.0,66.0,30.12,ESE,114,8.0,11.0,76,-99.99,,,-99.99,,2013-04-10 13:53:00,
2013-04-10 10:02:00,74.0,66.0,30.12,ESE,114,8.0,11.0,76,-99.99,,,-99.99,,2013-04-10 14:02:00,
2013-04-10 10:12:00,75.0,66.0,30.12,ESE,116,7.0,16.0,73,-99.99,,,-99.99,,2013-04-10 14:12:00,
2013-04-10 10:22:00,76.0,66.0,30.13,SE,127,8.0,13.0,70,-99.99,,,-99.99,,2013-04-10 14:22:00,
2013-04-10 10:33:00,76.0,66.0,30.13,SE,127,8.0,13.0,70,-99.99,,,-99.99,,2013-04-10 14:33:00,
2013-04-10 10:42:00,77.0,66.0,30.13,SE,128,8.0,12.0,67,-99.99,,,-99.99,,2013-04-10 14:42:00,
2013-04-10 10:52:00,77.0,66.0,30.13,ESE,117,9.0,12.0,66,-99.99,,,-99.99,,2013-04-10 14:52:00,
2013-04-10 11:03:00,77.0,66.0,30.13,ESE,117,9.0,12.0,66,-99.99,,,-99.99,,2013-04-10 15:03:00,
2013-04-10 11:12:00,79.0,66.0,30.13,ESE,118,8.0,12.0,64,-99.99,,,-99.99,,2013-04-10 15:12:00,
2013-04-10 11:23:00,79.0,65.0,30.13,SE,145,11.0,17.0,61,-99.99,,,-99.99,,2013-04-10 15:23:00,
2013-04-10 11:33:00,79.0,65.0,30.13,SE,145,11.0,17.0,61,-99.99,,,-99.99,,2013-04-10 15:33:00,
2013-04-10 11:42:00,80.0,64.0,30.13,SE,142,11.0,16.0,57,-99.99,,,-99.99,,2013-04-10 15:42:00,
2013-04-10 11:53:00,80.0,63.0,30.13,SE,135,11.0,17.0,54,-99.99,,,-99.99,,2013-04-10 15:53:00,
2013-04-10 12:03:00,80.0,63.0,30.13,SE,135,11.0,17.0,54,-99.99,,,-99.99,,2013-04-10 16:03:00,
2013-04-10 12:13:00,82.0,62.0,30.13,SE,136,9.0,16.0,52,-99.99,,,-99.99,,2013-04-10 16:13:00,
2013-04-10 12:23:00,82.0,61.0,30.12,SE,141,9.0,18.0,49,-99.99,,,-99.99,,2013-04-10 16:23:00,
2013-04-10 12:33:00,82.0,61.0,30.12,SE,141,9.0,18.0,49,-99.99,,,-99.99,,2013-04-10 16:33:00,
2013-04-10 12:43:00,83.0,60.0,30.12,SSE,147,10.0,15.0,45,-99.99,,,-99.99,,2013-04-10 16:43:00,
2013-04-10 12:53:00,83.0,59.0,30.12,SE,134,9.0,17.0,43,-99.99,,,-99.99,,2013-04-10 16:53:00,
2013-04-10 13:03:00,83.0,59.0,30.12,SE,134,9.0,17.0,43,-99.99,,,-99.99,,2013-04-10 17:03:00,
2013-04-10 13:13:00,84.0,59.0,30.11,SE,141,9.0,15.0,42,-99.99,,,-99.99,,2013-04-10 17:13:00,
2013-04-10 13:22:00,85.0,58.0,30.10,SE,146,9.0,15.0,40,-99.99,,,-99.99,,2013-04-10 17:22:00,
2013-04-10 13:33:00,85.0,58.0,30.10,SE,146,9.0,15.0,40,-99.99,,,-99.99,,2013-04-10 17:33:00,
2013-04-10 13:43:00,85.0,58.0,30.10,SE,130,9.0,13.0,39,-99.99,,,-99.99,,2013-04-10 17:43:00,
2013-04-10 13:53:00,86.0,58.0,30.10,SE,125,8.0,15.0,38,-99.99,,,-99.99,,2013-04-10 17:53:00,
2013-04-10 14:03:00,86.0,58.0,30.10,SE,125,8.0,15.0,38,-99.99,,,-99.99,,2013-04-10 18:03:00,
2013-04-10 14:12:00,85.0,58.0,30.09,SE,134,9.0,13.0,39,-99.99,,,-99.99,,2013-04-10 18:12:00,
2013-04-10 14:23:00,87.0,58.0,30.09,SE,138,7.0,13.0,38,-99.99,,,-99.99,,2013-04-10 18:23:00,
2013-04-10 14:33:00,87.0,58.0,30.09,SE,138,7.0,13.0,38,-99.99,,,-99.99,,2013-04-10 18:33:00,
2013-04-10 14:43:00,87.0,58.0,30.08,SSE,157,8.0,13.0,37,-99.99,,,-99.99,,2013-04-10 18:43:00,
2013-04-10 14:53:00,87.0,59.0,30.08,SE,140,8.0,13.0,38,-99.99,,,-99.99,,2013-04-10 18:53:00,
2013-04-10 15:03:00,87.0,59.0,30.08,SE,140,8.0,13.0,38,-99.99,,,-99.99,,2013-04-10 19:03:00,
2013-04-10 15:13:00,87.0,58.0,30.08,ESE,114,6.0,12.0,37,-99.99,,,-99.99,,2013-04-10 19:13:00,
2013-04-10 15:22:00,86.0,58.0,30.07,SE,125,6.0,11.0,39,-99.99,,,-99.99,,2013-04-10 19:22:00,
2013-04-10 15:33:00,86.0,58.0,30.07,SE,125,6.0,11.0,39,-99.99,,,-99.99,,2013-04-10 19:33:00,
2013-04-10 15:42:00,88.0,58.0,30.07,SE,125,7.0,13.0,37,-99.99,,,-99.99,,2013-04-10 19:42:00,
2013-04-10 15:53:00,86.0,59.0,30.06,SE,124,6.0,11.0,39,-99.99,,,-99.99,,2013-04-10 19:53:00,
2013-04-10 16:03:00,86.0,59.0,30.06,SE,124,6.0,11.0,39,-99.99,,,-99.99,,2013-04-10 20:03:00,
2013-04-10 16:12:00,86.0,59.0,30.06,ESE,114,6.0,10.0,39,-99.99,,,-99.99,,2013-04-10 20:12:00,
2013-04-10 16:23:00,86.0,59.0,30.06,ESE,114,6.0,10.0,39,-99.99,,,-99.99,,2013-04-10 20:23:00,
2013-04-10 16:33:00,87.0,59.0,30.05,ESE,120,7.0,13.0,39,-99.99,,,-99.99,,2013-04-10 20:33:00,
2013-04-10 16:42:00,87.0,59.0,30.05,East,99,7.0,13.0,39,-99.99,,,-99.99,,2013-04-10 20:42:00,
2013-04-10 16:53:00,86.0,59.0,30.04,SE,125,5.0,9.0,39,-99.99,,,-99.99,,2013-04-10 20:53:00,
2013-04-10 17:03:00,86.0,59.0,30.04,SE,125,5.0,9.0,39,-99.99,,,-99.99,,2013-04-10 21:03:00,
2013-04-10 17:13:00,87.0,60.0,30.03,SE,138,6.0,13.0,39,-99.99,,,-99.99,,2013-04-10 21:13:00,
2013-04-10 17:22:00,88.0,60.0,30.03,ESE,116,6.0,12.0,39,-99.99,,,-99.99,,2013-04-10 21:22:00,
2013-04-10 17:33:00,88.0,60.0,30.03,ESE,116,6.0,12.0,39,-99.99,,,-99.99,,2013-04-10 21:33:00,
2013-04-10 17:43:00,87.0,60.0,30.03,East,93,5.0,9.0,40,-99.99,,,-99.99,,2013-04-10 21:43:00,
2013-04-10 17:53:00,87.0,60.0,30.03,East,99,6.0,9.0,40,-99.99,,,-99.99,,2013-04-10 21:53:00,
2013-04-10 18:03:00,87.0,60.0,30.03,East,99,6.0,9.0,40,-99.99,,,-99.99,,2013-04-10 22:03:00,
2013-04-10 18:13:00,86.0,63.0,30.02,ENE,72,10.0,18.0,46,-99.99,,,-99.99,,2013-04-10 22:13:00,
2013-04-10 18:23:00,84.0,65.0,30.02,East,98,11.0,15.0,53,-99.99,,,-99.99,,2013-04-10 22:23:00,
2013-04-10 18:34:00,84.0,65.0,30.02,East,98,11.0,15.0,53,-99.99,,,-99.99,,2013-04-10 22:34:00,
2013-04-10 18:42:00,83.0,66.0,30.02,East,90,8.0,13.0,55,-99.99,,,-99.99,,2013-04-10 22:42:00,
2013-04-10 18:53:00,83.0,66.0,30.02,ESE,103,9.0,15.0,55,-99.99,,,-99.99,,2013-04-10 22:53:00,
2013-04-10 19:03:00,83.0,66.0,30.02,ESE,103,9.0,15.0,55,-99.99,,,-99.99,,2013-04-10 23:03:00,
2013-04-10 19:12:00,82.0,67.0,30.02,East,99,11.0,16.0,58,-99.99,,,-99.99,,2013-04-10 23:12:00,
2013-04-10 19:22:00,81.0,67.0,30.02,East,91,11.0,15.0,62,-99.99,,,-99.99,,2013-04-10 23:22:00,
2013-04-10 19:33:00,81.0,67.0,30.02,East,91,11.0,15.0,62,-99.99,,,-99.99,,2013-04-10 23:33:00,
2013-04-10 19:42:00,79.0,67.0,30.02,East,89,12.0,17.0,66,-99.99,,,-99.99,,2013-04-10 23:42:00,
2013-04-10 19:53:00,78.0,67.0,30.02,East,95,9.0,15.0,68,-99.99,,,-99.99,,2013-04-10 23:53:00,
2013-04-10 20:02:00,78.0,67.0,30.02,East,95,9.0,15.0,68,-99.99,,,-99.99,,2013-04-11 00:02:00,
2013-04-10 20:13:00,78.0,67.0,30.02,East,99,9.0,13.0,69,-99.99,,,-99.99,,2013-04-11 00:13:00,
2013-04-10 20:23:00,77.0,67.0,30.03,East,95,9.0,14.0,70,-99.99,,,-99.99,,2013-04-11 00:23:00,
2013-04-10 20:32:00,77.0,67.0,30.03,East,95,9.0,14.0,70,-99.99,,,-99.99,,2013-04-11 00:32:00,
2013-04-10 20:42:00,76.0,67.0,30.03,East,98,8.0,15.0,72,-99.99,,,-99.99,,2013-04-11 00:42:00,
2013-04-10 20:53:00,76.0,67.0,30.03,East,99,8.0,12.0,72,-99.99,,,-99.99,,2013-04-11 00:53:00,
2013-04-10 21:02:00,76.0,67.0,30.03,East,99,8.0,12.0,72,-99.99,,,-99.99,,2013-04-11 01:02:00,
2013-04-10 21:12:00,76.0,67.0,30.04,East,89,7.0,11.0,73,-99.99,,,-99.99,,2013-04-11 01:12:00,
2013-04-10 21:22:00,75.0,67.0,30.04,East,88,7.0,11.0,75,-99.99,,,-99.99,,2013-04-11 01:22:00,
2013-04-10 21:32:00,75.0,67.0,30.04,East,88,7.0,11.0,75,-99.99,,,-99.99,,2013-04-11 01:32:00,
2013-04-10 21:42:00,75.0,67.0,30.04,East,91,7.0,10.0,76,-99.99,,,-99.99,,2013-04-11 01:42:00,
2013-04-10 21:52:00,74.0,67.0,30.04,East,100,6.0,9.0,78,-99.99,,,-99.99,,2013-04-11 01:52:00,
2013-04-10 22:03:00,74.0,67.0,30.04,East,100,6.0,9.0,78,-99.99,,,-99.99,,2013-04-11 02:03:00,
2013-04-10 22:12:00,74.0,67.0,30.05,ESE,111,4.0,8.0,79,-99.99,,,-99.99,,2013-04-11 02:12:00,
2013-04-10 22:22:00,74.0,67.0,30.05,ESE,104,6.0,10.0,79,-99.99,,,-99.99,,2013-04-11 02:22:00,
2013-04-10 22:32:00,74.0,67.0,30.05,ESE,104,6.0,10.0,79,-99.99,,,-99.99,,2013-04-11 02:32:00,
2013-04-10 22:42:00,74.0,67.0,30.05,ESE,104,6.0,10.0,79,-99.99,,,-99.99,,2013-04-11 02:42:00,
2013-04-10 22:53:00,73.0,68.0,30.05,ESE,108,5.0,8.0,81,-99.99,,,-99.99,,2013-04-11 02:53:00,
2013-04-10 23:02:00,73.0,68.0,30.05,ESE,108,5.0,8.0,81,-99.99,,,-99.99,,2013-04-11 03:02:00,
2013-04-10 23:12:00,73.0,67.0,30.04,ESE,107,6.0,9.0,82,-99.99,,,-99.99,,2013-04-11 03:12:00,
2013-04-10 23:22:00,73.0,68.0,30.04,ESE,104,8.0,12.0,84,-99.99,,,-99.99,,2013-04-11 03:22:00,
2013-04-10 23:33:00,73.0,68.0,30.04,ESE,104,8.0,12.0,84,-99.99,,,-99.99,,2013-04-11 03:33:00,
2013-04-10 23:43:00,72.0,68.0,30.04,ESE,117,6.0,10.0,85,-99.99,,,-99.99,,2013-04-11 03:43:00,
2013-04-10 23:54:00,73.0,68.0,30.05,SE,127,6.0,10.0,85,-99.99,,,-99.99,,2013-04-11 03:54:00,